sensor_id;sensor_type;location;lat;lon;timestamp;P1;durP1;ratioP1;P2;durP2;ratioP2
17991;SDS011;9121;50.926;5.340;2023-05-10T00:01:34;13.80;;;9.52;;
17991;SDS011;9121;50.926;5.340;2023-05-10T00:04:01;19.17;;;10.13;;
17991;SDS011;9121;50.926;5.340;2023-05-10T00:06:28;15.43;;;9.75;;
17991;SDS011;9121;50.926;5.340;2023-05-10T00:08:56;17.20;;;10.65;;
17991;SDS011;9121;50.926;5.340;2023-05-10T00:11:23;18.35;;;10.35;;
17991;SDS011;9121;50.926;5.340;2023-05-10T00:13:50;14.47;;;10.33;;
17991;SDS011;9121;50.926;5.340;2023-05-10T00:16:17;15.93;;;10.45;;
17991;SDS011;9121;50.926;5.340;2023-05-10T00:18:44;15.32;;;10.27;;
17991;SDS011;9121;50.926;5.340;2023-05-10T00:21:11;15.70;;;10.25;;
17991;SDS011;9121;50.926;5.340;2023-05-10T00:23:38;21.60;;;11.52;;
17991;SDS011;9121;50.926;5.340;2023-05-10T00:26:06;19.55;;;10.05;;
17991;SDS011;9121;50.926;5.340;2023-05-10T00:28:33;15.80;;;10.82;;
17991;SDS011;9121;50.926;5.340;2023-05-10T00:31:00;17.08;;;11.15;;
17991;SDS011;9121;50.926;5.340;2023-05-10T00:33:27;18.15;;;10.07;;
17991;SDS011;9121;50.926;5.340;2023-05-10T00:35:54;13.60;;;9.90;;
17991;SDS011;9121;50.926;5.340;2023-05-10T00:38:21;19.42;;;11.30;;
17991;SDS011;9121;50.926;5.340;2023-05-10T00:40:48;15.55;;;10.52;;
17991;SDS011;9121;50.926;5.340;2023-05-10T00:43:16;14.95;;;11.00;;
17991;SDS011;9121;50.926;5.340;2023-05-10T00:45:43;15.65;;;10.05;;
17991;SDS011;9121;50.926;5.340;2023-05-10T00:48:10;17.50;;;10.40;;
17991;SDS011;9121;50.926;5.340;2023-05-10T00:50:38;20.90;;;10.90;;
17991;SDS011;9121;50.926;5.340;2023-05-10T00:53:05;18.80;;;11.05;;
17991;SDS011;9121;50.926;5.340;2023-05-10T00:55:33;15.20;;;10.43;;
17991;SDS011;9121;50.926;5.340;2023-05-10T00:58:00;16.75;;;10.48;;
17991;SDS011;9121;50.926;5.340;2023-05-10T01:00:29;15.65;;;10.45;;
17991;SDS011;9121;50.926;5.340;2023-05-10T01:02:56;16.58;;;10.30;;
17991;SDS011;9121;50.926;5.340;2023-05-10T01:05:24;22.50;;;11.35;;
17991;SDS011;9121;50.926;5.340;2023-05-10T01:07:52;20.38;;;10.27;;
17991;SDS011;9121;50.926;5.340;2023-05-10T01:10:19;22.63;;;10.07;;
17991;SDS011;9121;50.926;5.340;2023-05-10T01:12:46;19.95;;;11.07;;
17991;SDS011;9121;50.926;5.340;2023-05-10T01:15:13;15.52;;;10.45;;
17991;SDS011;9121;50.926;5.340;2023-05-10T01:17:44;17.67;;;11.07;;
17991;SDS011;9121;50.926;5.340;2023-05-10T01:20:12;19.25;;;10.85;;
17991;SDS011;9121;50.926;5.340;2023-05-10T01:25:38;19.98;;;10.77;;
17991;SDS011;9121;50.926;5.340;2023-05-10T01:28:35;17.08;;;10.68;;
17991;SDS011;9121;50.926;5.340;2023-05-10T01:31:52;19.95;;;11.20;;
17991;SDS011;9121;50.926;5.340;2023-05-10T01:34:35;18.73;;;10.88;;
17991;SDS011;9121;50.926;5.340;2023-05-10T01:37:09;24.20;;;10.60;;
17991;SDS011;9121;50.926;5.340;2023-05-10T01:39:43;24.95;;;11.07;;
17991;SDS011;9121;50.926;5.340;2023-05-10T01:42:14;20.15;;;11.00;;
17991;SDS011;9121;50.926;5.340;2023-05-10T01:44:48;21.67;;;10.63;;
17991;SDS011;9121;50.926;5.340;2023-05-10T01:47:23;17.48;;;10.95;;
17991;SDS011;9121;50.926;5.340;2023-05-10T01:49:55;19.45;;;11.10;;
17991;SDS011;9121;50.926;5.340;2023-05-10T01:52:26;23.60;;;12.02;;
17991;SDS011;9121;50.926;5.340;2023-05-10T01:54:59;29.02;;;12.40;;
17991;SDS011;9121;50.926;5.340;2023-05-10T01:57:33;24.65;;;11.40;;
17991;SDS011;9121;50.926;5.340;2023-05-10T02:00:02;20.80;;;11.77;;
17991;SDS011;9121;50.926;5.340;2023-05-10T02:02:32;20.52;;;10.68;;
17991;SDS011;9121;50.926;5.340;2023-05-10T02:05:03;20.13;;;11.65;;
17991;SDS011;9121;50.926;5.340;2023-05-10T02:07:33;28.73;;;12.93;;
17991;SDS011;9121;50.926;5.340;2023-05-10T02:10:02;25.73;;;12.10;;
17991;SDS011;9121;50.926;5.340;2023-05-10T02:12:31;23.73;;;12.10;;
17991;SDS011;9121;50.926;5.340;2023-05-10T02:15:01;18.98;;;11.35;;
17991;SDS011;9121;50.926;5.340;2023-05-10T02:17:33;27.55;;;12.70;;
17991;SDS011;9121;50.926;5.340;2023-05-10T02:20:02;23.42;;;11.80;;
17991;SDS011;9121;50.926;5.340;2023-05-10T02:22:29;20.95;;;11.30;;
17991;SDS011;9121;50.926;5.340;2023-05-10T02:24:57;21.48;;;12.18;;
17991;SDS011;9121;50.926;5.340;2023-05-10T02:27:25;20.40;;;12.02;;
17991;SDS011;9121;50.926;5.340;2023-05-10T02:29:54;20.80;;;11.85;;
17991;SDS011;9121;50.926;5.340;2023-05-10T02:32:22;26.55;;;11.93;;
17991;SDS011;9121;50.926;5.340;2023-05-10T02:34:53;21.85;;;12.38;;
17991;SDS011;9121;50.926;5.340;2023-05-10T02:37:22;22.67;;;12.00;;
17991;SDS011;9121;50.926;5.340;2023-05-10T02:39:50;24.30;;;11.75;;
17991;SDS011;9121;50.926;5.340;2023-05-10T02:42:20;25.45;;;12.50;;
17991;SDS011;9121;50.926;5.340;2023-05-10T02:44:50;26.13;;;12.65;;
17991;SDS011;9121;50.926;5.340;2023-05-10T02:47:20;27.27;;;12.07;;
17991;SDS011;9121;50.926;5.340;2023-05-10T02:49:47;25.60;;;12.65;;
17991;SDS011;9121;50.926;5.340;2023-05-10T02:52:16;24.80;;;12.40;;
17991;SDS011;9121;50.926;5.340;2023-05-10T02:54:50;26.77;;;12.82;;
17991;SDS011;9121;50.926;5.340;2023-05-10T02:57:22;19.70;;;12.60;;
17991;SDS011;9121;50.926;5.340;2023-05-10T02:59:52;28.13;;;13.48;;
17991;SDS011;9121;50.926;5.340;2023-05-10T03:02:20;25.20;;;11.77;;
17991;SDS011;9121;50.926;5.340;2023-05-10T03:04:47;27.20;;;12.63;;
17991;SDS011;9121;50.926;5.340;2023-05-10T03:07:16;23.63;;;11.93;;
17991;SDS011;9121;50.926;5.340;2023-05-10T03:09:44;24.67;;;12.10;;
17991;SDS011;9121;50.926;5.340;2023-05-10T03:12:12;30.50;;;11.98;;
17991;SDS011;9121;50.926;5.340;2023-05-10T03:14:47;23.00;;;12.70;;
17991;SDS011;9121;50.926;5.340;2023-05-10T03:17:22;26.38;;;12.77;;
17991;SDS011;9121;50.926;5.340;2023-05-10T03:19:56;21.80;;;12.05;;
17991;SDS011;9121;50.926;5.340;2023-05-10T03:22:26;28.63;;;13.30;;
17991;SDS011;9121;50.926;5.340;2023-05-10T03:24:56;30.88;;;13.35;;
17991;SDS011;9121;50.926;5.340;2023-05-10T03:27:26;24.33;;;13.38;;
17991;SDS011;9121;50.926;5.340;2023-05-10T03:29:55;21.05;;;12.98;;
17991;SDS011;9121;50.926;5.340;2023-05-10T03:32:23;28.33;;;13.70;;
17991;SDS011;9121;50.926;5.340;2023-05-10T03:34:52;30.67;;;14.52;;
17991;SDS011;9121;50.926;5.340;2023-05-10T03:37:19;27.23;;;13.55;;
17991;SDS011;9121;50.926;5.340;2023-05-10T03:39:47;25.77;;;13.50;;
17991;SDS011;9121;50.926;5.340;2023-05-10T03:42:14;34.40;;;14.98;;
17991;SDS011;9121;50.926;5.340;2023-05-10T03:44:42;32.45;;;14.52;;
17991;SDS011;9121;50.926;5.340;2023-05-10T03:47:09;31.77;;;14.57;;
17991;SDS011;9121;50.926;5.340;2023-05-10T03:49:36;30.30;;;14.32;;
17991;SDS011;9121;50.926;5.340;2023-05-10T03:52:03;25.52;;;14.27;;
17991;SDS011;9121;50.926;5.340;2023-05-10T03:54:30;30.42;;;14.82;;
17991;SDS011;9121;50.926;5.340;2023-05-10T03:56:59;27.75;;;13.98;;
17991;SDS011;9121;50.926;5.340;2023-05-10T03:59:26;29.75;;;15.30;;
17991;SDS011;9121;50.926;5.340;2023-05-10T04:01:53;29.15;;;14.52;;
17991;SDS011;9121;50.926;5.340;2023-05-10T04:04:20;42.08;;;15.50;;
17991;SDS011;9121;50.926;5.340;2023-05-10T04:06:48;29.52;;;15.60;;
17991;SDS011;9121;50.926;5.340;2023-05-10T04:09:15;31.85;;;15.32;;
17991;SDS011;9121;50.926;5.340;2023-05-10T04:11:42;37.25;;;16.95;;
17991;SDS011;9121;50.926;5.340;2023-05-10T04:14:10;41.97;;;17.75;;
17991;SDS011;9121;50.926;5.340;2023-05-10T04:16:37;28.77;;;16.17;;
17991;SDS011;9121;50.926;5.340;2023-05-10T04:19:04;38.63;;;18.15;;
17991;SDS011;9121;50.926;5.340;2023-05-10T04:21:31;36.15;;;16.60;;
17991;SDS011;9121;50.926;5.340;2023-05-10T04:23:58;34.30;;;17.45;;
17991;SDS011;9121;50.926;5.340;2023-05-10T04:26:25;36.03;;;17.10;;
17991;SDS011;9121;50.926;5.340;2023-05-10T04:28:52;35.53;;;18.42;;
17991;SDS011;9121;50.926;5.340;2023-05-10T04:31:20;37.08;;;18.38;;
17991;SDS011;9121;50.926;5.340;2023-05-10T04:33:47;34.35;;;17.40;;
17991;SDS011;9121;50.926;5.340;2023-05-10T04:36:14;35.63;;;17.30;;
17991;SDS011;9121;50.926;5.340;2023-05-10T04:38:41;34.17;;;17.83;;
17991;SDS011;9121;50.926;5.340;2023-05-10T04:41:09;34.90;;;18.60;;
17991;SDS011;9121;50.926;5.340;2023-05-10T04:43:37;38.97;;;18.70;;
17991;SDS011;9121;50.926;5.340;2023-05-10T04:46:04;41.50;;;19.35;;
17991;SDS011;9121;50.926;5.340;2023-05-10T04:48:33;41.75;;;20.42;;
17991;SDS011;9121;50.926;5.340;2023-05-10T04:51:00;42.85;;;19.58;;
17991;SDS011;9121;50.926;5.340;2023-05-10T04:53:28;42.97;;;20.27;;
17991;SDS011;9121;50.926;5.340;2023-05-10T04:55:55;41.85;;;19.95;;
17991;SDS011;9121;50.926;5.340;2023-05-10T04:58:22;40.28;;;20.35;;
17991;SDS011;9121;50.926;5.340;2023-05-10T05:00:49;48.22;;;19.52;;
17991;SDS011;9121;50.926;5.340;2023-05-10T05:03:16;39.72;;;19.88;;
17991;SDS011;9121;50.926;5.340;2023-05-10T05:05:44;47.10;;;21.58;;
17991;SDS011;9121;50.926;5.340;2023-05-10T05:08:11;43.00;;;20.30;;
17991;SDS011;9121;50.926;5.340;2023-05-10T05:10:38;43.42;;;20.83;;
17991;SDS011;9121;50.926;5.340;2023-05-10T05:13:05;42.78;;;21.55;;
17991;SDS011;9121;50.926;5.340;2023-05-10T05:15:32;47.33;;;22.98;;
17991;SDS011;9121;50.926;5.340;2023-05-10T05:17:59;46.53;;;20.88;;
17991;SDS011;9121;50.926;5.340;2023-05-10T05:20:26;49.88;;;23.42;;
17991;SDS011;9121;50.926;5.340;2023-05-10T05:22:54;55.05;;;23.63;;
17991;SDS011;9121;50.926;5.340;2023-05-10T05:25:21;56.97;;;23.83;;
17991;SDS011;9121;50.926;5.340;2023-05-10T05:27:48;55.30;;;22.90;;
17991;SDS011;9121;50.926;5.340;2023-05-10T05:30:15;56.70;;;24.58;;
17991;SDS011;9121;50.926;5.340;2023-05-10T05:32:42;48.47;;;23.50;;
17991;SDS011;9121;50.926;5.340;2023-05-10T05:35:09;49.90;;;23.55;;
17991;SDS011;9121;50.926;5.340;2023-05-10T05:37:36;61.28;;;26.45;;
17991;SDS011;9121;50.926;5.340;2023-05-10T05:40:05;57.63;;;25.60;;
17991;SDS011;9121;50.926;5.340;2023-05-10T05:42:33;56.45;;;25.15;;
17991;SDS011;9121;50.926;5.340;2023-05-10T05:45:00;59.03;;;26.67;;
17991;SDS011;9121;50.926;5.340;2023-05-10T05:47:27;59.30;;;25.63;;
17991;SDS011;9121;50.926;5.340;2023-05-10T05:49:54;75.35;;;32.15;;
17991;SDS011;9121;50.926;5.340;2023-05-10T05:52:21;64.90;;;27.42;;
17991;SDS011;9121;50.926;5.340;2023-05-10T05:54:48;70.72;;;27.15;;
17991;SDS011;9121;50.926;5.340;2023-05-10T05:57:16;63.53;;;26.65;;
17991;SDS011;9121;50.926;5.340;2023-05-10T05:59:43;68.63;;;27.40;;
17991;SDS011;9121;50.926;5.340;2023-05-10T06:02:11;69.38;;;28.77;;
17991;SDS011;9121;50.926;5.340;2023-05-10T06:04:37;66.07;;;27.73;;
17991;SDS011;9121;50.926;5.340;2023-05-10T06:07:04;67.57;;;27.67;;
17991;SDS011;9121;50.926;5.340;2023-05-10T06:09:31;66.57;;;27.45;;
17991;SDS011;9121;50.926;5.340;2023-05-10T06:11:58;68.78;;;26.92;;
17991;SDS011;9121;50.926;5.340;2023-05-10T06:14:27;65.70;;;27.90;;
17991;SDS011;9121;50.926;5.340;2023-05-10T06:16:53;68.68;;;27.40;;
17991;SDS011;9121;50.926;5.340;2023-05-10T06:19:20;61.13;;;27.45;;
17991;SDS011;9121;50.926;5.340;2023-05-10T06:21:47;70.55;;;28.42;;
17991;SDS011;9121;50.926;5.340;2023-05-10T06:24:14;70.68;;;27.65;;
17991;SDS011;9121;50.926;5.340;2023-05-10T06:26:41;65.88;;;27.77;;
17991;SDS011;9121;50.926;5.340;2023-05-10T06:29:08;66.25;;;27.48;;
17991;SDS011;9121;50.926;5.340;2023-05-10T06:31:37;71.15;;;27.88;;
17991;SDS011;9121;50.926;5.340;2023-05-10T06:34:04;71.32;;;28.65;;
17991;SDS011;9121;50.926;5.340;2023-05-10T06:36:33;69.15;;;26.67;;
17991;SDS011;9121;50.926;5.340;2023-05-10T06:39:00;70.65;;;27.20;;
17991;SDS011;9121;50.926;5.340;2023-05-10T06:41:26;69.72;;;28.63;;
17991;SDS011;9121;50.926;5.340;2023-05-10T06:43:53;69.57;;;27.00;;
17991;SDS011;9121;50.926;5.340;2023-05-10T06:46:20;71.63;;;27.75;;
17991;SDS011;9121;50.926;5.340;2023-05-10T06:48:48;64.72;;;26.27;;
17991;SDS011;9121;50.926;5.340;2023-05-10T06:51:15;65.55;;;27.20;;
17991;SDS011;9121;50.926;5.340;2023-05-10T06:53:43;72.22;;;27.80;;
17991;SDS011;9121;50.926;5.340;2023-05-10T06:56:09;68.50;;;26.50;;
17991;SDS011;9121;50.926;5.340;2023-05-10T06:58:36;79.13;;;28.27;;
17991;SDS011;9121;50.926;5.340;2023-05-10T07:01:04;74.40;;;27.23;;
17991;SDS011;9121;50.926;5.340;2023-05-10T07:03:31;73.30;;;28.65;;
17991;SDS011;9121;50.926;5.340;2023-05-10T07:06:03;77.60;;;27.63;;
17991;SDS011;9121;50.926;5.340;2023-05-10T07:08:32;73.50;;;27.98;;
17991;SDS011;9121;50.926;5.340;2023-05-10T07:11:00;79.35;;;28.52;;
17991;SDS011;9121;50.926;5.340;2023-05-10T07:13:29;79.20;;;27.98;;
17991;SDS011;9121;50.926;5.340;2023-05-10T07:15:56;82.80;;;29.60;;
17991;SDS011;9121;50.926;5.340;2023-05-10T07:18:23;72.55;;;28.40;;
17991;SDS011;9121;50.926;5.340;2023-05-10T07:20:50;74.38;;;28.50;;
17991;SDS011;9121;50.926;5.340;2023-05-10T07:23:19;70.00;;;27.83;;
17991;SDS011;9121;50.926;5.340;2023-05-10T07:25:46;63.55;;;27.20;;
17991;SDS011;9121;50.926;5.340;2023-05-10T07:28:13;74.03;;;30.23;;
17991;SDS011;9121;50.926;5.340;2023-05-10T07:30:40;66.60;;;27.60;;
17991;SDS011;9121;50.926;5.340;2023-05-10T07:33:08;70.25;;;27.90;;
17991;SDS011;9121;50.926;5.340;2023-05-10T07:35:35;70.75;;;27.05;;
17991;SDS011;9121;50.926;5.340;2023-05-10T07:38:02;72.70;;;27.90;;
17991;SDS011;9121;50.926;5.340;2023-05-10T07:40:30;68.65;;;26.83;;
17991;SDS011;9121;50.926;5.340;2023-05-10T07:42:58;63.05;;;26.00;;
17991;SDS011;9121;50.926;5.340;2023-05-10T07:45:26;59.45;;;25.13;;
17991;SDS011;9121;50.926;5.340;2023-05-10T07:47:53;69.03;;;26.25;;
17991;SDS011;9121;50.926;5.340;2023-05-10T07:50:20;61.20;;;25.92;;
17991;SDS011;9121;50.926;5.340;2023-05-10T07:52:47;59.67;;;25.83;;
17991;SDS011;9121;50.926;5.340;2023-05-10T07:55:14;57.92;;;25.10;;
17991;SDS011;9121;50.926;5.340;2023-05-10T07:57:42;56.75;;;24.38;;
17991;SDS011;9121;50.926;5.340;2023-05-10T08:00:11;57.08;;;24.67;;
17991;SDS011;9121;50.926;5.340;2023-05-10T08:02:39;50.03;;;25.10;;
17991;SDS011;9121;50.926;5.340;2023-05-10T08:05:07;51.33;;;23.63;;
17991;SDS011;9121;50.926;5.340;2023-05-10T08:07:35;45.53;;;21.65;;
17991;SDS011;9121;50.926;5.340;2023-05-10T08:10:02;113.65;;;26.13;;
17991;SDS011;9121;50.926;5.340;2023-05-10T08:12:29;26.73;;;9.27;;
17991;SDS011;9121;50.926;5.340;2023-05-10T08:14:57;12.80;;;5.88;;
17991;SDS011;9121;50.926;5.340;2023-05-10T08:17:25;8.40;;;4.80;;
17991;SDS011;9121;50.926;5.340;2023-05-10T08:19:52;7.07;;;3.53;;
17991;SDS011;9121;50.926;5.340;2023-05-10T08:22:18;8.38;;;3.50;;
17991;SDS011;9121;50.926;5.340;2023-05-10T08:24:45;6.90;;;3.70;;
17991;SDS011;9121;50.926;5.340;2023-05-10T08:27:12;6.18;;;3.75;;
17991;SDS011;9121;50.926;5.340;2023-05-10T08:29:39;6.10;;;3.55;;
17991;SDS011;9121;50.926;5.340;2023-05-10T08:32:07;7.38;;;4.10;;
17991;SDS011;9121;50.926;5.340;2023-05-10T08:34:34;9.05;;;3.80;;
17991;SDS011;9121;50.926;5.340;2023-05-10T08:37:02;6.03;;;3.83;;
17991;SDS011;9121;50.926;5.340;2023-05-10T08:39:29;7.47;;;3.80;;
17991;SDS011;9121;50.926;5.340;2023-05-10T08:42:00;6.70;;;3.92;;
17991;SDS011;9121;50.926;5.340;2023-05-10T08:44:30;5.35;;;3.47;;
17991;SDS011;9121;50.926;5.340;2023-05-10T08:47:01;7.57;;;4.13;;
17991;SDS011;9121;50.926;5.340;2023-05-10T08:49:32;6.97;;;4.25;;
17991;SDS011;9121;50.926;5.340;2023-05-10T08:52:00;6.95;;;4.18;;
17991;SDS011;9121;50.926;5.340;2023-05-10T08:54:31;9.18;;;4.30;;
17991;SDS011;9121;50.926;5.340;2023-05-10T08:56:58;9.70;;;5.07;;
17991;SDS011;9121;50.926;5.340;2023-05-10T08:59:25;7.20;;;4.82;;
17991;SDS011;9121;50.926;5.340;2023-05-10T09:01:53;8.80;;;4.93;;
17991;SDS011;9121;50.926;5.340;2023-05-10T09:04:23;8.73;;;4.45;;
17991;SDS011;9121;50.926;5.340;2023-05-10T09:06:52;9.45;;;5.53;;
17991;SDS011;9121;50.926;5.340;2023-05-10T09:09:19;9.70;;;6.13;;
17991;SDS011;9121;50.926;5.340;2023-05-10T09:11:46;6.95;;;5.03;;
17991;SDS011;9121;50.926;5.340;2023-05-10T09:14:13;8.60;;;5.28;;
17991;SDS011;9121;50.926;5.340;2023-05-10T09:16:42;10.98;;;5.90;;
17991;SDS011;9121;50.926;5.340;2023-05-10T09:19:09;9.57;;;5.57;;
17991;SDS011;9121;50.926;5.340;2023-05-10T09:21:36;8.45;;;5.57;;
17991;SDS011;9121;50.926;5.340;2023-05-10T09:24:06;9.32;;;6.20;;
17991;SDS011;9121;50.926;5.340;2023-05-10T09:26:34;10.77;;;6.03;;
17991;SDS011;9121;50.926;5.340;2023-05-10T09:29:01;15.80;;;6.45;;
17991;SDS011;9121;50.926;5.340;2023-05-10T09:31:45;10.98;;;6.07;;
17991;SDS011;9121;50.926;5.340;2023-05-10T09:34:15;8.20;;;5.60;;
17991;SDS011;9121;50.926;5.340;2023-05-10T09:36:50;8.90;;;5.65;;
17991;SDS011;9121;50.926;5.340;2023-05-10T09:39:24;19.00;;;6.85;;
17991;SDS011;9121;50.926;5.340;2023-05-10T09:41:57;11.43;;;6.53;;
17991;SDS011;9121;50.926;5.340;2023-05-10T09:44:26;11.25;;;6.38;;
17991;SDS011;9121;50.926;5.340;2023-05-10T09:46:53;12.57;;;6.55;;
17991;SDS011;9121;50.926;5.340;2023-05-10T09:49:20;10.10;;;6.15;;
17991;SDS011;9121;50.926;5.340;2023-05-10T09:51:47;12.20;;;6.32;;
17991;SDS011;9121;50.926;5.340;2023-05-10T09:54:30;12.70;;;6.85;;
17991;SDS011;9121;50.926;5.340;2023-05-10T09:56:57;12.13;;;6.55;;
17991;SDS011;9121;50.926;5.340;2023-05-10T09:59:24;13.73;;;7.97;;
17991;SDS011;9121;50.926;5.340;2023-05-10T10:01:52;11.60;;;7.35;;
17991;SDS011;9121;50.926;5.340;2023-05-10T10:04:21;12.75;;;7.75;;
17991;SDS011;9121;50.926;5.340;2023-05-10T10:06:58;14.32;;;8.35;;
17991;SDS011;9121;50.926;5.340;2023-05-10T10:09:26;17.77;;;8.98;;
17991;SDS011;9121;50.926;5.340;2023-05-10T10:11:55;13.93;;;8.82;;
17991;SDS011;9121;50.926;5.340;2023-05-10T10:14:22;16.27;;;8.88;;
17991;SDS011;9121;50.926;5.340;2023-05-10T10:16:50;15.63;;;9.05;;
17991;SDS011;9121;50.926;5.340;2023-05-10T10:19:17;18.73;;;10.00;;
17991;SDS011;9121;50.926;5.340;2023-05-10T10:21:45;19.58;;;9.55;;
17991;SDS011;9121;50.926;5.340;2023-05-10T10:24:12;17.73;;;9.85;;
17991;SDS011;9121;50.926;5.340;2023-05-10T10:26:39;18.10;;;10.43;;
17991;SDS011;9121;50.926;5.340;2023-05-10T10:29:10;21.48;;;10.88;;
17991;SDS011;9121;50.926;5.340;2023-05-10T10:31:45;18.27;;;9.98;;
17991;SDS011;9121;50.926;5.340;2023-05-10T10:34:18;19.15;;;10.70;;
17991;SDS011;9121;50.926;5.340;2023-05-10T10:36:52;18.42;;;10.15;;
17991;SDS011;9121;50.926;5.340;2023-05-10T10:39:20;16.90;;;9.23;;
17991;SDS011;9121;50.926;5.340;2023-05-10T10:41:50;18.35;;;10.13;;
17991;SDS011;9121;50.926;5.340;2023-05-10T10:44:23;18.42;;;10.65;;
17991;SDS011;9121;50.926;5.340;2023-05-10T10:46:58;18.55;;;9.52;;
17991;SDS011;9121;50.926;5.340;2023-05-10T10:49:25;22.67;;;9.63;;
17991;SDS011;9121;50.926;5.340;2023-05-10T10:54:44;19.15;;;8.88;;
17991;SDS011;9121;50.926;5.340;2023-05-10T10:57:17;14.95;;;8.45;;
17991;SDS011;9121;50.926;5.340;2023-05-10T10:59:48;13.05;;;7.93;;
17991;SDS011;9121;50.926;5.340;2023-05-10T11:02:33;15.00;;;8.10;;
17991;SDS011;9121;50.926;5.340;2023-05-10T11:08:07;15.82;;;7.78;;
17991;SDS011;9121;50.926;5.340;2023-05-10T11:10:39;13.98;;;7.10;;
17991;SDS011;9121;50.926;5.340;2023-05-10T11:13:17;10.90;;;6.57;;
17991;SDS011;9121;50.926;5.340;2023-05-10T11:15:56;9.32;;;5.97;;
17991;SDS011;9121;50.926;5.340;2023-05-10T11:18:24;10.02;;;6.50;;
17991;SDS011;9121;50.926;5.340;2023-05-10T11:20:55;9.43;;;6.07;;
17991;SDS011;9121;50.926;5.340;2023-05-10T11:23:28;18.38;;;6.40;;
17991;SDS011;9121;50.926;5.340;2023-05-10T11:25:56;19.98;;;6.53;;
17991;SDS011;9121;50.926;5.340;2023-05-10T11:28:23;17.77;;;6.68;;
17991;SDS011;9121;50.926;5.340;2023-05-10T11:30:51;8.55;;;5.18;;
17991;SDS011;9121;50.926;5.340;2023-05-10T11:33:21;7.88;;;5.60;;
17991;SDS011;9121;50.926;5.340;2023-05-10T11:35:47;7.88;;;4.85;;
17991;SDS011;9121;50.926;5.340;2023-05-10T11:38:15;37.28;;;8.55;;
17991;SDS011;9121;50.926;5.340;2023-05-10T11:40:42;9.68;;;5.20;;
17991;SDS011;9121;50.926;5.340;2023-05-10T11:43:09;8.23;;;5.30;;
17991;SDS011;9121;50.926;5.340;2023-05-10T11:45:37;8.65;;;5.20;;
17991;SDS011;9121;50.926;5.340;2023-05-10T11:48:06;7.72;;;4.78;;
17991;SDS011;9121;50.926;5.340;2023-05-10T11:50:34;9.93;;;5.07;;
17991;SDS011;9121;50.926;5.340;2023-05-10T11:53:01;9.70;;;5.18;;
17991;SDS011;9121;50.926;5.340;2023-05-10T11:55:28;6.88;;;4.63;;
17991;SDS011;9121;50.926;5.340;2023-05-10T11:58:00;8.20;;;4.32;;
17991;SDS011;9121;50.926;5.340;2023-05-10T12:00:27;7.90;;;4.13;;
17991;SDS011;9121;50.926;5.340;2023-05-10T12:02:55;9.00;;;4.32;;
17991;SDS011;9121;50.926;5.340;2023-05-10T12:05:22;9.15;;;4.20;;
17991;SDS011;9121;50.926;5.340;2023-05-10T12:07:50;5.40;;;4.20;;
17991;SDS011;9121;50.926;5.340;2023-05-10T12:10:17;7.90;;;3.95;;
17991;SDS011;9121;50.926;5.340;2023-05-10T12:12:52;9.38;;;4.53;;
17991;SDS011;9121;50.926;5.340;2023-05-10T12:15:19;8.07;;;4.00;;
17991;SDS011;9121;50.926;5.340;2023-05-10T12:17:47;9.32;;;3.55;;
17991;SDS011;9121;50.926;5.340;2023-05-10T12:20:15;7.60;;;4.30;;
17991;SDS011;9121;50.926;5.340;2023-05-10T12:22:46;6.10;;;3.70;;
17991;SDS011;9121;50.926;5.340;2023-05-10T12:25:16;4.57;;;3.42;;
17991;SDS011;9121;50.926;5.340;2023-05-10T12:27:47;8.60;;;3.85;;
17991;SDS011;9121;50.926;5.340;2023-05-10T12:30:21;5.28;;;3.70;;
17991;SDS011;9121;50.926;5.340;2023-05-10T12:32:48;7.18;;;3.50;;
17991;SDS011;9121;50.926;5.340;2023-05-10T12:35:15;6.57;;;3.95;;
17991;SDS011;9121;50.926;5.340;2023-05-10T12:37:45;10.52;;;3.45;;
17991;SDS011;9121;50.926;5.340;2023-05-10T12:40:12;6.18;;;4.07;;
17991;SDS011;9121;50.926;5.340;2023-05-10T12:42:41;29.77;;;16.50;;
17991;SDS011;9121;50.926;5.340;2023-05-10T12:45:10;7.03;;;3.67;;
17991;SDS011;9121;50.926;5.340;2023-05-10T12:47:37;9.10;;;4.25;;
17991;SDS011;9121;50.926;5.340;2023-05-10T12:50:05;6.18;;;3.75;;
17991;SDS011;9121;50.926;5.340;2023-05-10T12:52:32;4.93;;;3.55;;
17991;SDS011;9121;50.926;5.340;2023-05-10T12:54:59;5.93;;;3.67;;
17991;SDS011;9121;50.926;5.340;2023-05-10T12:57:28;5.88;;;3.38;;
17991;SDS011;9121;50.926;5.340;2023-05-10T12:59:57;4.95;;;3.42;;
17991;SDS011;9121;50.926;5.340;2023-05-10T13:02:24;5.65;;;3.28;;
17991;SDS011;9121;50.926;5.340;2023-05-10T13:04:50;4.70;;;3.05;;
17991;SDS011;9121;50.926;5.340;2023-05-10T13:07:17;4.03;;;2.70;;
17991;SDS011;9121;50.926;5.340;2023-05-10T13:09:45;3.95;;;2.90;;
17991;SDS011;9121;50.926;5.340;2023-05-10T13:12:12;3.67;;;2.80;;
17991;SDS011;9121;50.926;5.340;2023-05-10T13:14:39;4.50;;;2.40;;
17991;SDS011;9121;50.926;5.340;2023-05-10T13:17:08;4.13;;;2.97;;
17991;SDS011;9121;50.926;5.340;2023-05-10T13:19:35;4.38;;;2.83;;
17991;SDS011;9121;50.926;5.340;2023-05-10T13:22:02;2.85;;;2.30;;
17991;SDS011;9121;50.926;5.340;2023-05-10T13:24:30;4.95;;;2.65;;
17991;SDS011;9121;50.926;5.340;2023-05-10T13:26:57;5.63;;;2.92;;
17991;SDS011;9121;50.926;5.340;2023-05-10T13:29:24;8.77;;;3.50;;
17991;SDS011;9121;50.926;5.340;2023-05-10T13:31:51;3.45;;;3.00;;
17991;SDS011;9121;50.926;5.340;2023-05-10T13:34:19;3.95;;;2.78;;
17991;SDS011;9121;50.926;5.340;2023-05-10T13:36:46;3.13;;;2.80;;
17991;SDS011;9121;50.926;5.340;2023-05-10T13:39:14;3.17;;;2.80;;
17991;SDS011;9121;50.926;5.340;2023-05-10T13:41:41;2.20;;;2.00;;
17991;SDS011;9121;50.926;5.340;2023-05-10T13:44:08;4.25;;;2.50;;
17991;SDS011;9121;50.926;5.340;2023-05-10T13:46:36;2.47;;;2.10;;
17991;SDS011;9121;50.926;5.340;2023-05-10T13:49:03;2.13;;;1.92;;
17991;SDS011;9121;50.926;5.340;2023-05-10T13:51:32;3.72;;;2.30;;
17991;SDS011;9121;50.926;5.340;2023-05-10T13:53:59;39.15;;;6.05;;
17991;SDS011;9121;50.926;5.340;2023-05-10T13:56:26;13.35;;;2.40;;
17991;SDS011;9121;50.926;5.340;2023-05-10T13:58:53;2.55;;;2.10;;
17991;SDS011;9121;50.926;5.340;2023-05-10T14:01:22;3.38;;;2.45;;
17991;SDS011;9121;50.926;5.340;2023-05-10T14:03:49;2.10;;;1.90;;
17991;SDS011;9121;50.926;5.340;2023-05-10T14:06:16;2.50;;;2.15;;
17991;SDS011;9121;50.926;5.340;2023-05-10T14:08:44;3.08;;;2.47;;
17991;SDS011;9121;50.926;5.340;2023-05-10T14:11:11;3.30;;;2.60;;
17991;SDS011;9121;50.926;5.340;2023-05-10T14:13:38;3.10;;;2.53;;
17991;SDS011;9121;50.926;5.340;2023-05-10T14:16:06;3.25;;;2.67;;
17991;SDS011;9121;50.926;5.340;2023-05-10T14:18:33;3.15;;;2.65;;
17991;SDS011;9121;50.926;5.340;2023-05-10T14:21:01;3.83;;;2.67;;
17991;SDS011;9121;50.926;5.340;2023-05-10T14:23:28;3.17;;;2.60;;
17991;SDS011;9121;50.926;5.340;2023-05-10T14:25:56;3.17;;;2.70;;
17991;SDS011;9121;50.926;5.340;2023-05-10T14:28:23;4.13;;;2.53;;
17991;SDS011;9121;50.926;5.340;2023-05-10T14:30:50;11.57;;;3.15;;
17991;SDS011;9121;50.926;5.340;2023-05-10T14:33:17;3.25;;;2.10;;
17991;SDS011;9121;50.926;5.340;2023-05-10T14:35:45;4.35;;;2.90;;
17991;SDS011;9121;50.926;5.340;2023-05-10T14:38:12;4.63;;;3.00;;
17991;SDS011;9121;50.926;5.340;2023-05-10T14:40:39;2.70;;;2.13;;
17991;SDS011;9121;50.926;5.340;2023-05-10T14:43:08;2.40;;;2.20;;
17991;SDS011;9121;50.926;5.340;2023-05-10T14:45:35;2.55;;;2.20;;
17991;SDS011;9121;50.926;5.340;2023-05-10T14:48:02;2.10;;;1.90;;
17991;SDS011;9121;50.926;5.340;2023-05-10T14:50:30;2.95;;;2.30;;
17991;SDS011;9121;50.926;5.340;2023-05-10T14:52:57;3.40;;;2.10;;
17991;SDS011;9121;50.926;5.340;2023-05-10T14:55:24;2.85;;;2.05;;
17991;SDS011;9121;50.926;5.340;2023-05-10T14:57:51;2.58;;;2.38;;
17991;SDS011;9121;50.926;5.340;2023-05-10T15:00:21;3.75;;;2.30;;
17991;SDS011;9121;50.926;5.340;2023-05-10T15:02:48;2.95;;;2.10;;